sensor_id;sensor_type;location;lat;lon;timestamp;temperature;humidity
20866;DHT22;10593;48.398;10.698;2023-03-14T00:01:58;15.00;54.80
20866;DHT22;10593;48.398;10.698;2023-03-14T00:04:24;14.90;54.90
20866;DHT22;10593;48.398;10.698;2023-03-14T00:06:49;14.90;54.90
20866;DHT22;10593;48.398;10.698;2023-03-14T00:09:16;14.90;54.90
20866;DHT22;10593;48.398;10.698;2023-03-14T00:11:43;14.90;55.00
20866;DHT22;10593;48.398;10.698;2023-03-14T00:14:08;14.90;55.00
20866;DHT22;10593;48.398;10.698;2023-03-14T00:16:34;14.90;55.00
20866;DHT22;10593;48.398;10.698;2023-03-14T00:19:00;14.80;55.00
20866;DHT22;10593;48.398;10.698;2023-03-14T00:21:26;14.80;55.10
20866;DHT22;10593;48.398;10.698;2023-03-14T00:23:52;14.80;55.30
20866;DHT22;10593;48.398;10.698;2023-03-14T00:26:19;14.80;55.30
20866;DHT22;10593;48.398;10.698;2023-03-14T00:28:46;14.80;55.30
20866;DHT22;10593;48.398;10.698;2023-03-14T00:31:14;14.80;55.30
20866;DHT22;10593;48.398;10.698;2023-03-14T00:33:41;14.80;55.30
20866;DHT22;10593;48.398;10.698;2023-03-14T00:36:10;14.70;55.20
20866;DHT22;10593;48.398;10.698;2023-03-14T00:38:38;14.70;55.20
20866;DHT22;10593;48.398;10.698;2023-03-14T00:41:10;14.70;55.20
20866;DHT22;10593;48.398;10.698;2023-03-14T00:43:40;14.70;55.20
20866;DHT22;10593;48.398;10.698;2023-03-14T00:46:07;14.70;55.20
20866;DHT22;10593;48.398;10.698;2023-03-14T00:48:33;14.60;55.10
20866;DHT22;10593;48.398;10.698;2023-03-14T00:50:59;14.60;55.10
20866;DHT22;10593;48.398;10.698;2023-03-14T00:53:25;14.60;55.10
20866;DHT22;10593;48.398;10.698;2023-03-14T00:55:51;14.60;55.10
20866;DHT22;10593;48.398;10.698;2023-03-14T00:58:17;14.60;55.10
20866;DHT22;10593;48.398;10.698;2023-03-14T01:00:45;14.50;55.10
20866;DHT22;10593;48.398;10.698;2023-03-14T01:03:11;14.60;55.20
20866;DHT22;10593;48.398;10.698;2023-03-14T01:05:39;14.50;55.20
20866;DHT22;10593;48.398;10.698;2023-03-14T01:08:05;14.50;55.20
20866;DHT22;10593;48.398;10.698;2023-03-14T01:10:32;14.50;55.20
20866;DHT22;10593;48.398;10.698;2023-03-14T01:12:59;14.50;55.30
20866;DHT22;10593;48.398;10.698;2023-03-14T01:15:24;14.50;55.30
20866;DHT22;10593;48.398;10.698;2023-03-14T01:17:50;14.50;55.40
20866;DHT22;10593;48.398;10.698;2023-03-14T01:20:17;14.50;55.30
20866;DHT22;10593;48.398;10.698;2023-03-14T01:22:43;14.40;55.20
20866;DHT22;10593;48.398;10.698;2023-03-14T01:25:13;14.40;55.20
20866;DHT22;10593;48.398;10.698;2023-03-14T01:27:41;14.40;55.80
20866;DHT22;10593;48.398;10.698;2023-03-14T01:30:07;14.40;55.20
20866;DHT22;10593;48.398;10.698;2023-03-14T01:32:34;14.40;55.30
20866;DHT22;10593;48.398;10.698;2023-03-14T01:35:00;14.40;55.30
20866;DHT22;10593;48.398;10.698;2023-03-14T01:37:26;14.30;55.20
20866;DHT22;10593;48.398;10.698;2023-03-14T01:39:51;14.30;55.20
20866;DHT22;10593;48.398;10.698;2023-03-14T01:42:17;14.30;55.20
20866;DHT22;10593;48.398;10.698;2023-03-14T01:45:00;14.30;55.20
20866;DHT22;10593;48.398;10.698;2023-03-14T01:47:28;14.30;55.40
20866;DHT22;10593;48.398;10.698;2023-03-14T01:50:06;14.20;55.20
20866;DHT22;10593;48.398;10.698;2023-03-14T01:52:44;14.20;55.30
20866;DHT22;10593;48.398;10.698;2023-03-14T01:55:16;14.20;55.30
20866;DHT22;10593;48.398;10.698;2023-03-14T01:57:58;14.20;55.30
20866;DHT22;10593;48.398;10.698;2023-03-14T02:00:28;14.20;55.40
20866;DHT22;10593;48.398;10.698;2023-03-14T02:02:58;14.10;55.30
20866;DHT22;10593;48.398;10.698;2023-03-14T02:05:32;14.10;55.40
20866;DHT22;10593;48.398;10.698;2023-03-14T02:08:02;14.10;55.40
20866;DHT22;10593;48.398;10.698;2023-03-14T02:10:33;14.10;55.50
20866;DHT22;10593;48.398;10.698;2023-03-14T02:13:04;14.00;55.50
20866;DHT22;10593;48.398;10.698;2023-03-14T02:15:31;14.00;55.50
20866;DHT22;10593;48.398;10.698;2023-03-14T02:17:58;14.00;55.60
20866;DHT22;10593;48.398;10.698;2023-03-14T02:26:29;13.90;55.60
20866;DHT22;10593;48.398;10.698;2023-03-14T02:28:59;13.90;55.60
20866;DHT22;10593;48.398;10.698;2023-03-14T02:31:25;13.90;55.60
20866;DHT22;10593;48.398;10.698;2023-03-14T02:33:51;13.90;55.60
20866;DHT22;10593;48.398;10.698;2023-03-14T02:36:18;13.90;55.60
20866;DHT22;10593;48.398;10.698;2023-03-14T02:38:46;13.90;55.60
20866;DHT22;10593;48.398;10.698;2023-03-14T02:41:13;13.90;55.60
20866;DHT22;10593;48.398;10.698;2023-03-14T02:43:40;13.80;55.50
20866;DHT22;10593;48.398;10.698;2023-03-14T02:46:07;13.90;55.60
20866;DHT22;10593;48.398;10.698;2023-03-14T02:48:50;13.90;55.70
20866;DHT22;10593;48.398;10.698;2023-03-14T02:51:20;13.80;55.60
20866;DHT22;10593;48.398;10.698;2023-03-14T02:53:46;13.80;55.60
20866;DHT22;10593;48.398;10.698;2023-03-14T02:56:12;13.80;55.50
20866;DHT22;10593;48.398;10.698;2023-03-14T02:58:38;13.80;55.60
20866;DHT22;10593;48.398;10.698;2023-03-14T03:01:04;13.80;55.60
20866;DHT22;10593;48.398;10.698;2023-03-14T03:03:30;13.80;55.60
20866;DHT22;10593;48.398;10.698;2023-03-14T03:05:56;13.80;55.60
20866;DHT22;10593;48.398;10.698;2023-03-14T03:08:24;13.80;55.60
20866;DHT22;10593;48.398;10.698;2023-03-14T03:10:53;13.80;55.70
20866;DHT22;10593;48.398;10.698;2023-03-14T03:13:19;13.70;55.60
20866;DHT22;10593;48.398;10.698;2023-03-14T03:15:45;13.70;55.60
20866;DHT22;10593;48.398;10.698;2023-03-14T03:18:11;13.70;55.70
20866;DHT22;10593;48.398;10.698;2023-03-14T03:20:37;13.70;55.60
20866;DHT22;10593;48.398;10.698;2023-03-14T03:23:03;13.70;55.60
20866;DHT22;10593;48.398;10.698;2023-03-14T03:25:29;13.70;55.60
20866;DHT22;10593;48.398;10.698;2023-03-14T03:27:55;13.70;55.60
20866;DHT22;10593;48.398;10.698;2023-03-14T03:30:21;13.70;55.60
20866;DHT22;10593;48.398;10.698;2023-03-14T03:32:47;13.70;55.60
20866;DHT22;10593;48.398;10.698;2023-03-14T03:35:13;13.60;55.50
20866;DHT22;10593;48.398;10.698;2023-03-14T03:37:39;13.60;55.50
20866;DHT22;10593;48.398;10.698;2023-03-14T03:40:06;13.60;55.50
20866;DHT22;10593;48.398;10.698;2023-03-14T03:42:33;13.60;55.50
20866;DHT22;10593;48.398;10.698;2023-03-14T03:45:00;13.60;55.50
20866;DHT22;10593;48.398;10.698;2023-03-14T03:47:27;13.60;55.40
20866;DHT22;10593;48.398;10.698;2023-03-14T03:49:53;13.50;55.30
20866;DHT22;10593;48.398;10.698;2023-03-14T03:52:19;13.50;55.30
20866;DHT22;10593;48.398;10.698;2023-03-14T03:54:45;13.50;55.30
20866;DHT22;10593;48.398;10.698;2023-03-14T03:57:11;13.50;55.30
20866;DHT22;10593;48.398;10.698;2023-03-14T03:59:37;13.50;55.30
20866;DHT22;10593;48.398;10.698;2023-03-14T04:02:05;13.40;55.20
20866;DHT22;10593;48.398;10.698;2023-03-14T04:04:31;13.50;55.30
20866;DHT22;10593;48.398;10.698;2023-03-14T04:06:57;13.50;55.80
20866;DHT22;10593;48.398;10.698;2023-03-14T04:09:22;13.40;55.20
20866;DHT22;10593;48.398;10.698;2023-03-14T04:11:48;13.40;55.20
20866;DHT22;10593;48.398;10.698;2023-03-14T04:14:14;13.40;55.20
20866;DHT22;10593;48.398;10.698;2023-03-14T04:16:39;13.40;55.20
20866;DHT22;10593;48.398;10.698;2023-03-14T04:19:05;13.40;55.20
20866;DHT22;10593;48.398;10.698;2023-03-14T04:21:31;13.30;55.10
20866;DHT22;10593;48.398;10.698;2023-03-14T04:23:56;13.30;55.10
20866;DHT22;10593;48.398;10.698;2023-03-14T04:26:22;13.30;55.10
20866;DHT22;10593;48.398;10.698;2023-03-14T04:28:48;13.30;55.10
20866;DHT22;10593;48.398;10.698;2023-03-14T04:31:18;13.30;55.10
20866;DHT22;10593;48.398;10.698;2023-03-14T04:33:46;13.30;55.10
20866;DHT22;10593;48.398;10.698;2023-03-14T04:36:13;13.30;55.10
20866;DHT22;10593;48.398;10.698;2023-03-14T04:38:39;13.30;55.10
20866;DHT22;10593;48.398;10.698;2023-03-14T04:41:05;13.20;55.00
20866;DHT22;10593;48.398;10.698;2023-03-14T04:43:31;13.20;55.00
20866;DHT22;10593;48.398;10.698;2023-03-14T04:45:58;13.20;55.00
20866;DHT22;10593;48.398;10.698;2023-03-14T04:48:27;13.20;55.00
20866;DHT22;10593;48.398;10.698;2023-03-14T04:50:53;13.20;55.00
20866;DHT22;10593;48.398;10.698;2023-03-14T04:53:19;13.20;55.00
20866;DHT22;10593;48.398;10.698;2023-03-14T04:55:52;13.20;55.00
20866;DHT22;10593;48.398;10.698;2023-03-14T04:58:19;13.20;55.10
20866;DHT22;10593;48.398;10.698;2023-03-14T05:00:46;13.20;55.00
20866;DHT22;10593;48.398;10.698;2023-03-14T05:03:14;13.10;54.90
20866;DHT22;10593;48.398;10.698;2023-03-14T05:05:41;13.10;54.90
20866;DHT22;10593;48.398;10.698;2023-03-14T05:08:06;13.10;54.90
20866;DHT22;10593;48.398;10.698;2023-03-14T05:10:32;13.10;54.90
20866;DHT22;10593;48.398;10.698;2023-03-14T05:12:58;13.10;54.80
20866;DHT22;10593;48.398;10.698;2023-03-14T05:15:24;13.10;54.80
20866;DHT22;10593;48.398;10.698;2023-03-14T05:17:49;13.00;54.70
20866;DHT22;10593;48.398;10.698;2023-03-14T05:20:15;13.00;54.70
20866;DHT22;10593;48.398;10.698;2023-03-14T05:22:41;13.00;54.70
20866;DHT22;10593;48.398;10.698;2023-03-14T05:25:09;13.00;54.70
20866;DHT22;10593;48.398;10.698;2023-03-14T05:27:35;13.00;54.70
20866;DHT22;10593;48.398;10.698;2023-03-14T05:30:02;13.00;54.60
20866;DHT22;10593;48.398;10.698;2023-03-14T05:32:29;13.00;54.60
20866;DHT22;10593;48.398;10.698;2023-03-14T05:34:55;13.00;54.60
20866;DHT22;10593;48.398;10.698;2023-03-14T05:37:24;13.00;54.60
20866;DHT22;10593;48.398;10.698;2023-03-14T05:39:51;13.00;54.60
20866;DHT22;10593;48.398;10.698;2023-03-14T05:42:16;13.00;54.60
20866;DHT22;10593;48.398;10.698;2023-03-14T05:44:42;12.90;54.50
20866;DHT22;10593;48.398;10.698;2023-03-14T05:47:08;12.90;54.50
20866;DHT22;10593;48.398;10.698;2023-03-14T05:49:34;12.90;54.50
20866;DHT22;10593;48.398;10.698;2023-03-14T05:51:59;12.90;54.40
20866;DHT22;10593;48.398;10.698;2023-03-14T05:54:25;12.90;54.40
20866;DHT22;10593;48.398;10.698;2023-03-14T05:56:51;12.90;54.40
20866;DHT22;10593;48.398;10.698;2023-03-14T05:59:16;12.90;55.00
20866;DHT22;10593;48.398;10.698;2023-03-14T06:01:42;12.90;54.40
20866;DHT22;10593;48.398;10.698;2023-03-14T06:04:08;12.90;54.40
20866;DHT22;10593;48.398;10.698;2023-03-14T06:06:33;12.90;54.40
20866;DHT22;10593;48.398;10.698;2023-03-14T06:08:59;12.90;54.40
20866;DHT22;10593;48.398;10.698;2023-03-14T06:11:25;12.90;54.40
20866;DHT22;10593;48.398;10.698;2023-03-14T06:13:50;12.90;54.40
20866;DHT22;10593;48.398;10.698;2023-03-14T06:16:16;12.90;54.40
20866;DHT22;10593;48.398;10.698;2023-03-14T06:18:42;12.80;54.20
20866;DHT22;10593;48.398;10.698;2023-03-14T06:21:08;12.80;54.20
20866;DHT22;10593;48.398;10.698;2023-03-14T06:23:33;12.80;54.20
20866;DHT22;10593;48.398;10.698;2023-03-14T06:25:59;12.80;54.20
20866;DHT22;10593;48.398;10.698;2023-03-14T06:28:25;12.80;54.20
20866;DHT22;10593;48.398;10.698;2023-03-14T06:30:50;12.80;54.20
20866;DHT22;10593;48.398;10.698;2023-03-14T06:33:16;12.80;54.20
20866;DHT22;10593;48.398;10.698;2023-03-14T06:35:42;12.80;54.20
20866;DHT22;10593;48.398;10.698;2023-03-14T06:38:07;12.80;54.20
20866;DHT22;10593;48.398;10.698;2023-03-14T06:40:33;12.80;54.30
20866;DHT22;10593;48.398;10.698;2023-03-14T06:42:59;12.80;54.30
20866;DHT22;10593;48.398;10.698;2023-03-14T06:45:24;12.80;54.30
20866;DHT22;10593;48.398;10.698;2023-03-14T06:47:50;12.80;54.30
20866;DHT22;10593;48.398;10.698;2023-03-14T06:50:15;12.80;54.20
20866;DHT22;10593;48.398;10.698;2023-03-14T06:52:41;12.80;54.30
20866;DHT22;10593;48.398;10.698;2023-03-14T06:55:13;12.70;54.10
20866;DHT22;10593;48.398;10.698;2023-03-14T06:57:39;12.80;54.20
20866;DHT22;10593;48.398;10.698;2023-03-14T07:00:05;12.80;54.20
20866;DHT22;10593;48.398;10.698;2023-03-14T07:02:32;12.80;54.20
20866;DHT22;10593;48.398;10.698;2023-03-14T07:04:57;12.80;54.20
20866;DHT22;10593;48.398;10.698;2023-03-14T07:07:23;12.80;54.20
20866;DHT22;10593;48.398;10.698;2023-03-14T07:09:48;12.80;54.20
20866;DHT22;10593;48.398;10.698;2023-03-14T07:12:14;12.80;54.70
20866;DHT22;10593;48.398;10.698;2023-03-14T07:14:40;12.80;54.20
20866;DHT22;10593;48.398;10.698;2023-03-14T07:17:05;12.80;54.10
20866;DHT22;10593;48.398;10.698;2023-03-14T07:19:31;12.80;54.10
20866;DHT22;10593;48.398;10.698;2023-03-14T07:21:57;12.80;54.10
20866;DHT22;10593;48.398;10.698;2023-03-14T07:24:22;12.70;54.00
20866;DHT22;10593;48.398;10.698;2023-03-14T07:26:48;12.70;54.00
20866;DHT22;10593;48.398;10.698;2023-03-14T07:29:14;12.80;54.10
20866;DHT22;10593;48.398;10.698;2023-03-14T07:31:40;12.80;54.10
20866;DHT22;10593;48.398;10.698;2023-03-14T07:34:05;12.80;54.10
20866;DHT22;10593;48.398;10.698;2023-03-14T07:36:32;12.80;54.10
20866;DHT22;10593;48.398;10.698;2023-03-14T07:38:57;12.70;54.00
20866;DHT22;10593;48.398;10.698;2023-03-14T07:41:23;12.70;54.00
20866;DHT22;10593;48.398;10.698;2023-03-14T07:43:49;12.80;54.00
20866;DHT22;10593;48.398;10.698;2023-03-14T07:46:15;12.70;54.00
20866;DHT22;10593;48.398;10.698;2023-03-14T07:48:41;12.80;54.10
20866;DHT22;10593;48.398;10.698;2023-03-14T07:51:07;12.80;54.10
20866;DHT22;10593;48.398;10.698;2023-03-14T07:53:32;12.70;54.00
20866;DHT22;10593;48.398;10.698;2023-03-14T07:55:58;12.80;54.10
20866;DHT22;10593;48.398;10.698;2023-03-14T07:58:24;12.70;54.00
20866;DHT22;10593;48.398;10.698;2023-03-14T08:00:50;12.70;54.00
20866;DHT22;10593;48.398;10.698;2023-03-14T08:03:17;12.80;54.00
20866;DHT22;10593;48.398;10.698;2023-03-14T08:05:43;12.80;54.00
20866;DHT22;10593;48.398;10.698;2023-03-14T08:08:09;12.80;54.00
20866;DHT22;10593;48.398;10.698;2023-03-14T08:10:35;12.80;54.00
20866;DHT22;10593;48.398;10.698;2023-03-14T08:13:01;12.80;54.00
20866;DHT22;10593;48.398;10.698;2023-03-14T08:15:28;12.80;54.10
20866;DHT22;10593;48.398;10.698;2023-03-14T08:17:55;12.80;54.10
20866;DHT22;10593;48.398;10.698;2023-03-14T08:20:23;12.80;54.10
20866;DHT22;10593;48.398;10.698;2023-03-14T08:22:51;12.80;54.10
20866;DHT22;10593;48.398;10.698;2023-03-14T08:25:17;12.80;54.10
20866;DHT22;10593;48.398;10.698;2023-03-14T08:27:43;12.80;54.10
20866;DHT22;10593;48.398;10.698;2023-03-14T08:30:11;12.80;54.10
20866;DHT22;10593;48.398;10.698;2023-03-14T08:32:38;12.80;54.10
20866;DHT22;10593;48.398;10.698;2023-03-14T08:35:05;12.90;54.20
20866;DHT22;10593;48.398;10.698;2023-03-14T08:37:32;12.90;54.30
20866;DHT22;10593;48.398;10.698;2023-03-14T08:39:58;12.90;54.30
20866;DHT22;10593;48.398;10.698;2023-03-14T08:42:24;12.90;54.30
20866;DHT22;10593;48.398;10.698;2023-03-14T08:44:51;12.90;54.30
20866;DHT22;10593;48.398;10.698;2023-03-14T08:47:18;12.90;54.40
20866;DHT22;10593;48.398;10.698;2023-03-14T08:49:44;12.90;54.40
20866;DHT22;10593;48.398;10.698;2023-03-14T08:52:09;13.00;54.50
20866;DHT22;10593;48.398;10.698;2023-03-14T08:54:35;13.00;54.60
20866;DHT22;10593;48.398;10.698;2023-03-14T08:57:01;13.00;54.50
20866;DHT22;10593;48.398;10.698;2023-03-14T08:59:26;13.00;54.40
20866;DHT22;10593;48.398;10.698;2023-03-14T09:01:52;13.00;54.50
20866;DHT22;10593;48.398;10.698;2023-03-14T09:04:19;13.00;54.50
20866;DHT22;10593;48.398;10.698;2023-03-14T09:06:51;13.00;54.50
20866;DHT22;10593;48.398;10.698;2023-03-14T09:09:17;13.00;54.60
20866;DHT22;10593;48.398;10.698;2023-03-14T09:11:42;13.10;54.80
20866;DHT22;10593;48.398;10.698;2023-03-14T09:14:08;13.10;54.80
20866;DHT22;10593;48.398;10.698;2023-03-14T09:16:34;13.10;54.70
20866;DHT22;10593;48.398;10.698;2023-03-14T09:18:59;13.20;54.80
20866;DHT22;10593;48.398;10.698;2023-03-14T09:21:28;13.20;54.60
20866;DHT22;10593;48.398;10.698;2023-03-14T09:23:54;13.20;54.50
20866;DHT22;10593;48.398;10.698;2023-03-14T09:26:19;13.30;54.60
20866;DHT22;10593;48.398;10.698;2023-03-14T09:28:45;13.30;54.50
20866;DHT22;10593;48.398;10.698;2023-03-14T09:31:12;13.30;54.40
20866;DHT22;10593;48.398;10.698;2023-03-14T09:33:38;13.30;54.40
20866;DHT22;10593;48.398;10.698;2023-03-14T09:36:05;13.30;54.40
20866;DHT22;10593;48.398;10.698;2023-03-14T09:38:31;13.40;54.30
20866;DHT22;10593;48.398;10.698;2023-03-14T09:40:59;13.40;54.30
20866;DHT22;10593;48.398;10.698;2023-03-14T09:43:30;13.50;54.40
20866;DHT22;10593;48.398;10.698;2023-03-14T09:46:00;13.40;54.10
20866;DHT22;10593;48.398;10.698;2023-03-14T09:48:30;13.50;54.10
20866;DHT22;10593;48.398;10.698;2023-03-14T09:51:01;13.50;54.10
20866;DHT22;10593;48.398;10.698;2023-03-14T09:53:41;13.50;54.20
20866;DHT22;10593;48.398;10.698;2023-03-14T09:56:21;13.60;54.20
20866;DHT22;10593;48.398;10.698;2023-03-14T09:58:56;13.60;53.90
20866;DHT22;10593;48.398;10.698;2023-03-14T10:01:32;13.60;53.90
20866;DHT22;10593;48.398;10.698;2023-03-14T10:04:06;13.70;53.80
20866;DHT22;10593;48.398;10.698;2023-03-14T10:06:38;13.70;53.80
20866;DHT22;10593;48.398;10.698;2023-03-14T10:09:04;13.70;54.30
20866;DHT22;10593;48.398;10.698;2023-03-14T10:11:31;13.70;53.70
20866;DHT22;10593;48.398;10.698;2023-03-14T10:14:07;13.70;53.70
20866;DHT22;10593;48.398;10.698;2023-03-14T10:16:45;13.80;53.60
20866;DHT22;10593;48.398;10.698;2023-03-14T10:19:14;13.80;53.50
20866;DHT22;10593;48.398;10.698;2023-03-14T10:21:52;13.80;53.50
20866;DHT22;10593;48.398;10.698;2023-03-14T10:24:27;13.80;53.60
20866;DHT22;10593;48.398;10.698;2023-03-14T10:27:02;13.80;53.70
20866;DHT22;10593;48.398;10.698;2023-03-14T10:29:56;13.80;53.60
20866;DHT22;10593;48.398;10.698;2023-03-14T10:32:32;13.90;53.50
20866;DHT22;10593;48.398;10.698;2023-03-14T10:38:00;13.90;53.40
20866;DHT22;10593;48.398;10.698;2023-03-14T10:40:33;14.00;53.20
20866;DHT22;10593;48.398;10.698;2023-03-14T10:43:05;14.00;53.20
20866;DHT22;10593;48.398;10.698;2023-03-14T10:45:40;14.10;53.30
20866;DHT22;10593;48.398;10.698;2023-03-14T10:53:26;14.10;53.10
20866;DHT22;10593;48.398;10.698;2023-03-14T10:55:51;14.10;53.00
20866;DHT22;10593;48.398;10.698;2023-03-14T10:58:28;14.10;52.60
20866;DHT22;10593;48.398;10.698;2023-03-14T11:01:06;14.10;52.30
20866;DHT22;10593;48.398;10.698;2023-03-14T11:03:45;14.20;52.20
20866;DHT22;10593;48.398;10.698;2023-03-14T11:06:26;14.20;52.20
20866;DHT22;10593;48.398;10.698;2023-03-14T11:09:12;14.20;52.00
20866;DHT22;10593;48.398;10.698;2023-03-14T11:11:47;14.20;51.80
20866;DHT22;10593;48.398;10.698;2023-03-14T11:14:31;14.20;52.00
20866;DHT22;10593;48.398;10.698;2023-03-14T11:17:27;14.20;51.90
20866;DHT22;10593;48.398;10.698;2023-03-14T11:20:22;14.30;51.90
20866;DHT22;10593;48.398;10.698;2023-03-14T11:23:23;14.30;51.50
20866;DHT22;10593;48.398;10.698;2023-03-14T11:28:58;14.30;51.30
20866;DHT22;10593;48.398;10.698;2023-03-14T11:31:35;14.30;51.50
20866;DHT22;10593;48.398;10.698;2023-03-14T11:34:30;14.30;51.40
20866;DHT22;10593;48.398;10.698;2023-03-14T11:37:07;14.30;51.00
20866;DHT22;10593;48.398;10.698;2023-03-14T11:39:56;14.30;51.10
20866;DHT22;10593;48.398;10.698;2023-03-14T11:42:29;14.40;50.80
20866;DHT22;10593;48.398;10.698;2023-03-14T11:45:00;14.30;50.80
20866;DHT22;10593;48.398;10.698;2023-03-14T11:47:34;14.40;50.80
20866;DHT22;10593;48.398;10.698;2023-03-14T11:50:15;14.40;50.50
20866;DHT22;10593;48.398;10.698;2023-03-14T11:52:58;14.30;50.40
20866;DHT22;10593;48.398;10.698;2023-03-14T11:55:35;14.40;50.50
20866;DHT22;10593;48.398;10.698;2023-03-14T11:58:12;14.40;50.60
20866;DHT22;10593;48.398;10.698;2023-03-14T12:00:43;14.40;50.40
20866;DHT22;10593;48.398;10.698;2023-03-14T12:06:25;14.40;50.10
20866;DHT22;10593;48.398;10.698;2023-03-14T12:09:03;14.40;50.10
20866;DHT22;10593;48.398;10.698;2023-03-14T12:14:28;14.40;49.90
20866;DHT22;10593;48.398;10.698;2023-03-14T12:16:58;14.40;50.10
20866;DHT22;10593;48.398;10.698;2023-03-14T12:19:32;14.40;50.10
20866;DHT22;10593;48.398;10.698;2023-03-14T12:22:28;14.40;50.10
20866;DHT22;10593;48.398;10.698;2023-03-14T12:25:00;14.40;49.80
20866;DHT22;10593;48.398;10.698;2023-03-14T12:27:47;14.40;50.10
20866;DHT22;10593;48.398;10.698;2023-03-14T12:30:41;14.40;50.20
20866;DHT22;10593;48.398;10.698;2023-03-14T12:33:11;14.40;50.20
20866;DHT22;10593;48.398;10.698;2023-03-14T12:38:28;14.50;50.20
20866;DHT22;10593;48.398;10.698;2023-03-14T12:41:17;14.40;49.90
20866;DHT22;10593;48.398;10.698;2023-03-14T12:44:40;14.50;50.00
20866;DHT22;10593;48.398;10.698;2023-03-14T12:49:48;14.50;50.10
20866;DHT22;10593;48.398;10.698;2023-03-14T12:52:21;14.40;50.00
20866;DHT22;10593;48.398;10.698;2023-03-14T12:55:12;14.50;50.10
20866;DHT22;10593;48.398;10.698;2023-03-14T13:01:00;14.40;49.60
20866;DHT22;10593;48.398;10.698;2023-03-14T13:03:42;14.50;49.90
20866;DHT22;10593;48.398;10.698;2023-03-14T13:06:12;14.50;50.20
20866;DHT22;10593;48.398;10.698;2023-03-14T13:08:40;14.40;50.30
20866;DHT22;10593;48.398;10.698;2023-03-14T13:11:16;14.50;50.50
20866;DHT22;10593;48.398;10.698;2023-03-14T13:13:49;14.40;50.70
20866;DHT22;10593;48.398;10.698;2023-03-14T13:16:22;14.50;51.00
20866;DHT22;10593;48.398;10.698;2023-03-14T13:19:00;14.40;51.10
20866;DHT22;10593;48.398;10.698;2023-03-14T13:21:34;14.40;51.40
20866;DHT22;10593;48.398;10.698;2023-03-14T13:24:07;14.40;51.60
20866;DHT22;10593;48.398;10.698;2023-03-14T13:26:48;14.40;51.60
20866;DHT22;10593;48.398;10.698;2023-03-14T13:29:33;14.40;51.60
20866;DHT22;10593;48.398;10.698;2023-03-14T13:32:17;14.40;51.60
20866;DHT22;10593;48.398;10.698;2023-03-14T13:34:46;14.40;51.60
20866;DHT22;10593;48.398;10.698;2023-03-14T13:37:19;14.40;51.60
20866;DHT22;10593;48.398;10.698;2023-03-14T13:39:51;14.40;51.60
20866;DHT22;10593;48.398;10.698;2023-03-14T13:42:18;14.30;51.50
20866;DHT22;10593;48.398;10.698;2023-03-14T13:44:44;14.30;51.50
20866;DHT22;10593;48.398;10.698;2023-03-14T13:47:15;14.30;51.50
20866;DHT22;10593;48.398;10.698;2023-03-14T13:49:43;14.30;51.60
20866;DHT22;10593;48.398;10.698;2023-03-14T13:52:30;14.30;51.80
20866;DHT22;10593;48.398;10.698;2023-03-14T13:55:01;14.20;51.80
20866;DHT22;10593;48.398;10.698;2023-03-14T13:57:46;14.20;51.70
20866;DHT22;10593;48.398;10.698;2023-03-14T14:00:27;14.20;51.80
20866;DHT22;10593;48.398;10.698;2023-03-14T14:02:54;14.20;51.80
20866;DHT22;10593;48.398;10.698;2023-03-14T14:05:23;14.20;51.80
20866;DHT22;10593;48.398;10.698;2023-03-14T14:07:53;14.20;51.90
20866;DHT22;10593;48.398;10.698;2023-03-14T14:10:20;14.10;51.90
20866;DHT22;10593;48.398;10.698;2023-03-14T14:12:47;14.20;52.10
20866;DHT22;10593;48.398;10.698;2023-03-14T14:15:21;14.10;52.10
20866;DHT22;10593;48.398;10.698;2023-03-14T14:18:01;14.10;52.20
20866;DHT22;10593;48.398;10.698;2023-03-14T14:20:40;14.10;52.30
20866;DHT22;10593;48.398;10.698;2023-03-14T14:23:15;14.10;52.40
20866;DHT22;10593;48.398;10.698;2023-03-14T14:25:45;14.10;52.40
20866;DHT22;10593;48.398;10.698;2023-03-14T14:28:32;14.00;52.40
20866;DHT22;10593;48.398;10.698;2023-03-14T14:33:59;14.00;52.50
20866;DHT22;10593;48.398;10.698;2023-03-14T14:36:40;14.00;52.60
20866;DHT22;10593;48.398;10.698;2023-03-14T14:39:19;14.00;52.60
20866;DHT22;10593;48.398;10.698;2023-03-14T14:41:50;13.90;52.40
20866;DHT22;10593;48.398;10.698;2023-03-14T14:44:32;13.90;52.50
20866;DHT22;10593;48.398;10.698;2023-03-14T14:47:01;13.90;52.50
20866;DHT22;10593;48.398;10.698;2023-03-14T14:49:30;13.90;52.50
20866;DHT22;10593;48.398;10.698;2023-03-14T14:52:03;13.90;52.50
20866;DHT22;10593;48.398;10.698;2023-03-14T14:54:46;13.80;52.50
20866;DHT22;10593;48.398;10.698;2023-03-14T14:57:19;13.80;52.40
20866;DHT22;10593;48.398;10.698;2023-03-14T14:59:50;13.90;52.50
20866;DHT22;10593;48.398;10.698;2023-03-14T15:02:40;13.80;52.30
20866;DHT22;10593;48.398;10.698;2023-03-14T15:05:16;13.80;52.30
20866;DHT22;10593;48.398;10.698;2023-03-14T15:07:43;13.80;52.30
20866;DHT22;10593;48.398;10.698;2023-03-14T15:10:12;13.80;52.70
20866;DHT22;10593;48.398;10.698;2023-03-14T15:12:39;13.80;52.00
20866;DHT22;10593;48.398;10.698;2023-03-14T15:15:06;13.80;51.80
20866;DHT22;10593;48.398;10.698;2023-03-14T15:17:32;13.70;51.50
20866;DHT22;10593;48.398;10.698;2023-03-14T15:19:58;13.70;51.20
20866;DHT22;10593;48.398;10.698;2023-03-14T15:22:24;13.70;51.00
20866;DHT22;10593;48.398;10.698;2023-03-14T15:24:50;13.70;51.00
20866;DHT22;10593;48.398;10.698;2023-03-14T15:27:17;13.70;50.60
20866;DHT22;10593;48.398;10.698;2023-03-14T15:29:43;13.70;50.20
20866;DHT22;10593;48.398;10.698;2023-03-14T15:32:14;13.70;49.70
20866;DHT22;10593;48.398;10.698;2023-03-14T15:34:42;13.70;49.20
20866;DHT22;10593;48.398;10.698;2023-03-14T15:37:15;13.60;49.00
20866;DHT22;10593;48.398;10.698;2023-03-14T15:39:42;13.60;48.60
20866;DHT22;10593;48.398;10.698;2023-03-14T15:42:08;13.60;48.50
20866;DHT22;10593;48.398;10.698;2023-03-14T15:44:35;13.60;48.30
20866;DHT22;10593;48.398;10.698;2023-03-14T15:47:01;13.60;48.10
20866;DHT22;10593;48.398;10.698;2023-03-14T15:49:27;13.60;47.90
20866;DHT22;10593;48.398;10.698;2023-03-14T15:51:53;13.50;47.70
20866;DHT22;10593;48.398;10.698;2023-03-14T15:54:19;13.50;47.40
20866;DHT22;10593;48.398;10.698;2023-03-14T15:56:44;13.50;47.40
20866;DHT22;10593;48.398;10.698;2023-03-14T15:59:10;13.50;47.40
20866;DHT22;10593;48.398;10.698;2023-03-14T16:01:36;13.50;47.30
20866;DHT22;10593;48.398;10.698;2023-03-14T16:04:02;13.50;47.20
20866;DHT22;10593;48.398;10.698;2023-03-14T16:06:28;13.40;47.20